sensor_id;sensor_type;location;lat;lon;timestamp;P1;durP1;ratioP1;P2;durP2;ratioP2
41903;SDS011;27586;51.124;4.182;2023-06-26T00:00:26;5.13;;;2.83;;
41903;SDS011;27586;51.124;4.182;2023-06-26T00:02:51;4.47;;;2.70;;
41903;SDS011;27586;51.124;4.182;2023-06-26T00:05:17;3.70;;;3.00;;
41903;SDS011;27586;51.124;4.182;2023-06-26T00:07:43;4.60;;;2.75;;
41903;SDS011;27586;51.124;4.182;2023-06-26T00:10:08;4.85;;;2.85;;
41903;SDS011;27586;51.124;4.182;2023-06-26T00:12:34;3.75;;;2.92;;
41903;SDS011;27586;51.124;4.182;2023-06-26T00:15:00;5.07;;;3.30;;
41903;SDS011;27586;51.124;4.182;2023-06-26T00:17:26;7.70;;;3.28;;
41903;SDS011;27586;51.124;4.182;2023-06-26T00:19:51;3.83;;;3.08;;
41903;SDS011;27586;51.124;4.182;2023-06-26T00:22:17;3.28;;;2.90;;
41903;SDS011;27586;51.124;4.182;2023-06-26T00:24:43;4.07;;;3.10;;
41903;SDS011;27586;51.124;4.182;2023-06-26T00:27:12;7.30;;;3.15;;
41903;SDS011;27586;51.124;4.182;2023-06-26T00:29:37;4.22;;;3.30;;
41903;SDS011;27586;51.124;4.182;2023-06-26T00:32:03;4.05;;;3.03;;
41903;SDS011;27586;51.124;4.182;2023-06-26T00:34:29;3.95;;;3.08;;
41903;SDS011;27586;51.124;4.182;2023-06-26T00:36:55;4.65;;;3.10;;
41903;SDS011;27586;51.124;4.182;2023-06-26T00:39:21;4.13;;;3.20;;
41903;SDS011;27586;51.124;4.182;2023-06-26T00:41:47;3.97;;;3.03;;
41903;SDS011;27586;51.124;4.182;2023-06-26T00:44:12;5.93;;;2.90;;
41903;SDS011;27586;51.124;4.182;2023-06-26T00:46:38;4.72;;;3.10;;
41903;SDS011;27586;51.124;4.182;2023-06-26T00:49:04;4.68;;;3.08;;
41903;SDS011;27586;51.124;4.182;2023-06-26T00:51:30;3.88;;;2.90;;
41903;SDS011;27586;51.124;4.182;2023-06-26T00:53:56;5.13;;;2.95;;
41903;SDS011;27586;51.124;4.182;2023-06-26T00:56:22;6.68;;;3.20;;
41903;SDS011;27586;51.124;4.182;2023-06-26T00:58:49;5.15;;;3.42;;
41903;SDS011;27586;51.124;4.182;2023-06-26T01:01:15;5.80;;;2.60;;
41903;SDS011;27586;51.124;4.182;2023-06-26T01:03:43;3.75;;;3.15;;
41903;SDS011;27586;51.124;4.182;2023-06-26T01:06:11;4.05;;;2.88;;
41903;SDS011;27586;51.124;4.182;2023-06-26T01:08:38;3.28;;;2.97;;
41903;SDS011;27586;51.124;4.182;2023-06-26T01:11:06;5.88;;;2.90;;
41903;SDS011;27586;51.124;4.182;2023-06-26T01:13:32;3.92;;;3.15;;
41903;SDS011;27586;51.124;4.182;2023-06-26T01:15:59;4.40;;;3.25;;
41903;SDS011;27586;51.124;4.182;2023-06-26T01:18:25;8.32;;;3.63;;
41903;SDS011;27586;51.124;4.182;2023-06-26T01:20:51;5.60;;;3.15;;
41903;SDS011;27586;51.124;4.182;2023-06-26T01:23:24;5.15;;;3.08;;
41903;SDS011;27586;51.124;4.182;2023-06-26T01:28:45;6.85;;;3.20;;
41903;SDS011;27586;51.124;4.182;2023-06-26T01:31:11;4.57;;;3.38;;
41903;SDS011;27586;51.124;4.182;2023-06-26T01:33:38;7.88;;;3.63;;
41903;SDS011;27586;51.124;4.182;2023-06-26T01:36:05;5.88;;;3.03;;
41903;SDS011;27586;51.124;4.182;2023-06-26T01:38:32;6.10;;;3.47;;
41903;SDS011;27586;51.124;4.182;2023-06-26T01:40:58;8.18;;;3.38;;
41903;SDS011;27586;51.124;4.182;2023-06-26T01:43:32;6.00;;;3.60;;
41903;SDS011;27586;51.124;4.182;2023-06-26T01:49:25;6.25;;;3.53;;
41903;SDS011;27586;51.124;4.182;2023-06-26T01:52:03;4.53;;;3.08;;
41903;SDS011;27586;51.124;4.182;2023-06-26T01:54:54;5.72;;;3.33;;
41903;SDS011;27586;51.124;4.182;2023-06-26T01:57:27;5.72;;;3.35;;
41903;SDS011;27586;51.124;4.182;2023-06-26T01:59:55;5.18;;;3.55;;
41903;SDS011;27586;51.124;4.182;2023-06-26T02:02:23;6.75;;;3.45;;
41903;SDS011;27586;51.124;4.182;2023-06-26T02:04:49;5.32;;;3.40;;
41903;SDS011;27586;51.124;4.182;2023-06-26T02:07:15;5.28;;;3.10;;
41903;SDS011;27586;51.124;4.182;2023-06-26T02:09:41;6.03;;;3.60;;
41903;SDS011;27586;51.124;4.182;2023-06-26T02:12:07;6.50;;;3.35;;
41903;SDS011;27586;51.124;4.182;2023-06-26T02:14:33;6.60;;;3.20;;
41903;SDS011;27586;51.124;4.182;2023-06-26T02:16:58;7.57;;;3.30;;
41903;SDS011;27586;51.124;4.182;2023-06-26T02:19:25;5.13;;;3.60;;
41903;SDS011;27586;51.124;4.182;2023-06-26T02:21:52;6.38;;;3.65;;
41903;SDS011;27586;51.124;4.182;2023-06-26T02:24:18;7.47;;;3.15;;
41903;SDS011;27586;51.124;4.182;2023-06-26T02:26:44;7.38;;;3.55;;
41903;SDS011;27586;51.124;4.182;2023-06-26T02:29:11;6.07;;;3.60;;
41903;SDS011;27586;51.124;4.182;2023-06-26T02:31:36;7.30;;;3.53;;
41903;SDS011;27586;51.124;4.182;2023-06-26T02:34:02;7.38;;;3.53;;
41903;SDS011;27586;51.124;4.182;2023-06-26T02:36:28;7.20;;;3.75;;
41903;SDS011;27586;51.124;4.182;2023-06-26T02:38:54;10.30;;;3.42;;
41903;SDS011;27586;51.124;4.182;2023-06-26T02:41:20;8.32;;;3.92;;
41903;SDS011;27586;51.124;4.182;2023-06-26T02:43:45;7.78;;;3.70;;
41903;SDS011;27586;51.124;4.182;2023-06-26T02:46:11;6.55;;;3.75;;
41903;SDS011;27586;51.124;4.182;2023-06-26T02:48:36;7.65;;;3.75;;
41903;SDS011;27586;51.124;4.182;2023-06-26T02:51:02;8.60;;;3.95;;
41903;SDS011;27586;51.124;4.182;2023-06-26T02:53:28;7.60;;;4.00;;
41903;SDS011;27586;51.124;4.182;2023-06-26T02:55:53;9.43;;;3.80;;
41903;SDS011;27586;51.124;4.182;2023-06-26T02:58:19;6.97;;;3.83;;
41903;SDS011;27586;51.124;4.182;2023-06-26T03:00:45;10.45;;;4.05;;
41903;SDS011;27586;51.124;4.182;2023-06-26T03:03:11;6.43;;;3.83;;
41903;SDS011;27586;51.124;4.182;2023-06-26T03:05:38;10.10;;;4.03;;
41903;SDS011;27586;51.124;4.182;2023-06-26T03:08:03;8.73;;;4.25;;
41903;SDS011;27586;51.124;4.182;2023-06-26T03:10:29;7.63;;;3.95;;
41903;SDS011;27586;51.124;4.182;2023-06-26T03:12:55;8.43;;;3.80;;
41903;SDS011;27586;51.124;4.182;2023-06-26T03:15:21;7.05;;;4.05;;
41903;SDS011;27586;51.124;4.182;2023-06-26T03:17:47;7.25;;;3.60;;
41903;SDS011;27586;51.124;4.182;2023-06-26T03:20:12;9.63;;;4.55;;
41903;SDS011;27586;51.124;4.182;2023-06-26T03:22:38;10.05;;;4.65;;
41903;SDS011;27586;51.124;4.182;2023-06-26T03:25:03;9.60;;;4.50;;
41903;SDS011;27586;51.124;4.182;2023-06-26T03:27:30;9.25;;;4.60;;
41903;SDS011;27586;51.124;4.182;2023-06-26T03:29:55;9.90;;;4.10;;
41903;SDS011;27586;51.124;4.182;2023-06-26T03:32:21;10.23;;;4.45;;
41903;SDS011;27586;51.124;4.182;2023-06-26T03:34:46;9.82;;;4.63;;
41903;SDS011;27586;51.124;4.182;2023-06-26T03:37:12;8.93;;;3.97;;
41903;SDS011;27586;51.124;4.182;2023-06-26T03:39:38;11.13;;;4.63;;
41903;SDS011;27586;51.124;4.182;2023-06-26T03:42:03;9.60;;;4.43;;
41903;SDS011;27586;51.124;4.182;2023-06-26T03:44:29;9.50;;;4.72;;
41903;SDS011;27586;51.124;4.182;2023-06-26T03:46:55;12.00;;;4.50;;
41903;SDS011;27586;51.124;4.182;2023-06-26T03:49:21;7.30;;;4.07;;
41903;SDS011;27586;51.124;4.182;2023-06-26T03:51:46;13.15;;;4.93;;
41903;SDS011;27586;51.124;4.182;2023-06-26T03:54:12;8.63;;;4.20;;
41903;SDS011;27586;51.124;4.182;2023-06-26T03:56:37;9.98;;;4.57;;
41903;SDS011;27586;51.124;4.182;2023-06-26T03:59:03;9.02;;;4.30;;
41903;SDS011;27586;51.124;4.182;2023-06-26T04:01:29;8.32;;;4.15;;
41903;SDS011;27586;51.124;4.182;2023-06-26T04:03:55;10.63;;;4.22;;
41903;SDS011;27586;51.124;4.182;2023-06-26T04:06:20;14.88;;;4.85;;
41903;SDS011;27586;51.124;4.182;2023-06-26T04:08:46;11.73;;;4.57;;
41903;SDS011;27586;51.124;4.182;2023-06-26T04:11:11;14.70;;;4.63;;
41903;SDS011;27586;51.124;4.182;2023-06-26T04:13:37;11.27;;;4.43;;
41903;SDS011;27586;51.124;4.182;2023-06-26T04:16:03;13.27;;;4.90;;
41903;SDS011;27586;51.124;4.182;2023-06-26T04:18:29;7.88;;;4.55;;
41903;SDS011;27586;51.124;4.182;2023-06-26T04:21:07;12.02;;;4.15;;
41903;SDS011;27586;51.124;4.182;2023-06-26T04:23:33;12.90;;;4.72;;
41903;SDS011;27586;51.124;4.182;2023-06-26T04:26:00;10.98;;;4.63;;
41903;SDS011;27586;51.124;4.182;2023-06-26T04:28:25;8.80;;;4.20;;
41903;SDS011;27586;51.124;4.182;2023-06-26T04:30:51;10.77;;;4.57;;
41903;SDS011;27586;51.124;4.182;2023-06-26T04:33:18;10.98;;;4.00;;
41903;SDS011;27586;51.124;4.182;2023-06-26T04:35:44;10.98;;;4.50;;
41903;SDS011;27586;51.124;4.182;2023-06-26T04:38:13;10.43;;;4.45;;
41903;SDS011;27586;51.124;4.182;2023-06-26T04:40:42;11.35;;;4.30;;
41903;SDS011;27586;51.124;4.182;2023-06-26T04:43:07;11.00;;;4.13;;
41903;SDS011;27586;51.124;4.182;2023-06-26T04:45:33;11.13;;;4.32;;
41903;SDS011;27586;51.124;4.182;2023-06-26T04:47:59;9.35;;;3.97;;
41903;SDS011;27586;51.124;4.182;2023-06-26T04:50:27;11.90;;;4.40;;
41903;SDS011;27586;51.124;4.182;2023-06-26T04:52:54;11.02;;;4.50;;
41903;SDS011;27586;51.124;4.182;2023-06-26T04:55:20;10.35;;;4.20;;
41903;SDS011;27586;51.124;4.182;2023-06-26T04:57:46;11.43;;;4.57;;
41903;SDS011;27586;51.124;4.182;2023-06-26T05:00:12;10.95;;;4.10;;
41903;SDS011;27586;51.124;4.182;2023-06-26T05:02:40;8.85;;;3.90;;
41903;SDS011;27586;51.124;4.182;2023-06-26T05:05:06;8.35;;;3.97;;
41903;SDS011;27586;51.124;4.182;2023-06-26T05:07:31;10.77;;;3.92;;
41903;SDS011;27586;51.124;4.182;2023-06-26T05:09:57;9.98;;;3.67;;
41903;SDS011;27586;51.124;4.182;2023-06-26T05:12:23;10.38;;;3.90;;
41903;SDS011;27586;51.124;4.182;2023-06-26T05:14:48;10.02;;;4.07;;
41903;SDS011;27586;51.124;4.182;2023-06-26T05:17:14;9.60;;;4.05;;
41903;SDS011;27586;51.124;4.182;2023-06-26T05:19:40;8.32;;;3.60;;
41903;SDS011;27586;51.124;4.182;2023-06-26T05:22:06;9.80;;;3.55;;
41903;SDS011;27586;51.124;4.182;2023-06-26T05:24:35;8.63;;;3.65;;
41903;SDS011;27586;51.124;4.182;2023-06-26T05:27:02;10.63;;;3.75;;
41903;SDS011;27586;51.124;4.182;2023-06-26T05:29:31;7.90;;;3.58;;
41903;SDS011;27586;51.124;4.182;2023-06-26T05:31:58;12.13;;;3.67;;
41903;SDS011;27586;51.124;4.182;2023-06-26T05:34:24;9.80;;;3.55;;
41903;SDS011;27586;51.124;4.182;2023-06-26T05:36:53;9.63;;;3.75;;
41903;SDS011;27586;51.124;4.182;2023-06-26T05:39:25;8.73;;;3.50;;
41903;SDS011;27586;51.124;4.182;2023-06-26T05:41:51;9.60;;;3.25;;
41903;SDS011;27586;51.124;4.182;2023-06-26T05:44:17;7.07;;;3.45;;
41903;SDS011;27586;51.124;4.182;2023-06-26T05:46:43;10.20;;;3.70;;
41903;SDS011;27586;51.124;4.182;2023-06-26T05:49:09;8.27;;;3.20;;
41903;SDS011;27586;51.124;4.182;2023-06-26T05:51:35;7.90;;;2.90;;
41903;SDS011;27586;51.124;4.182;2023-06-26T05:54:01;8.88;;;2.90;;
41903;SDS011;27586;51.124;4.182;2023-06-26T05:56:27;9.15;;;2.95;;
41903;SDS011;27586;51.124;4.182;2023-06-26T05:58:53;7.10;;;3.22;;
41903;SDS011;27586;51.124;4.182;2023-06-26T06:01:20;9.23;;;3.05;;
41903;SDS011;27586;51.124;4.182;2023-06-26T06:03:46;9.60;;;3.13;;
41903;SDS011;27586;51.124;4.182;2023-06-26T06:06:11;6.47;;;2.92;;
41903;SDS011;27586;51.124;4.182;2023-06-26T06:08:37;12.07;;;3.25;;
41903;SDS011;27586;51.124;4.182;2023-06-26T06:11:03;10.48;;;3.17;;
41903;SDS011;27586;51.124;4.182;2023-06-26T06:13:28;7.82;;;3.17;;
41903;SDS011;27586;51.124;4.182;2023-06-26T06:15:54;8.20;;;3.13;;
41903;SDS011;27586;51.124;4.182;2023-06-26T06:18:20;6.07;;;2.40;;
41903;SDS011;27586;51.124;4.182;2023-06-26T06:20:46;6.70;;;2.50;;
41903;SDS011;27586;51.124;4.182;2023-06-26T06:23:12;8.80;;;2.70;;
41903;SDS011;27586;51.124;4.182;2023-06-26T06:25:37;6.70;;;2.35;;
41903;SDS011;27586;51.124;4.182;2023-06-26T06:28:04;6.13;;;2.20;;
41903;SDS011;27586;51.124;4.182;2023-06-26T06:30:30;8.05;;;2.60;;
41903;SDS011;27586;51.124;4.182;2023-06-26T06:32:55;7.00;;;1.92;;
41903;SDS011;27586;51.124;4.182;2023-06-26T06:35:21;6.68;;;1.75;;
41903;SDS011;27586;51.124;4.182;2023-06-26T06:37:50;5.10;;;1.75;;
41903;SDS011;27586;51.124;4.182;2023-06-26T06:40:16;6.03;;;1.60;;
41903;SDS011;27586;51.124;4.182;2023-06-26T06:42:42;5.75;;;2.00;;
41903;SDS011;27586;51.124;4.182;2023-06-26T06:45:07;5.18;;;1.80;;
41903;SDS011;27586;51.124;4.182;2023-06-26T06:47:35;3.25;;;1.50;;
41903;SDS011;27586;51.124;4.182;2023-06-26T06:50:01;4.88;;;1.55;;
41903;SDS011;27586;51.124;4.182;2023-06-26T06:52:34;4.18;;;1.40;;
41903;SDS011;27586;51.124;4.182;2023-06-26T06:55:00;7.10;;;1.55;;
41903;SDS011;27586;51.124;4.182;2023-06-26T06:57:31;7.18;;;1.73;;
41903;SDS011;27586;51.124;4.182;2023-06-26T07:00:01;3.83;;;1.33;;
41903;SDS011;27586;51.124;4.182;2023-06-26T07:02:29;4.68;;;1.50;;
41903;SDS011;27586;51.124;4.182;2023-06-26T07:04:55;4.07;;;1.55;;
41903;SDS011;27586;51.124;4.182;2023-06-26T07:07:21;3.42;;;1.42;;
41903;SDS011;27586;51.124;4.182;2023-06-26T07:09:46;3.42;;;1.58;;
41903;SDS011;27586;51.124;4.182;2023-06-26T07:12:12;4.90;;;1.70;;
41903;SDS011;27586;51.124;4.182;2023-06-26T07:14:38;6.47;;;1.60;;
41903;SDS011;27586;51.124;4.182;2023-06-26T07:17:04;5.03;;;1.20;;
41903;SDS011;27586;51.124;4.182;2023-06-26T07:19:30;6.07;;;1.50;;
41903;SDS011;27586;51.124;4.182;2023-06-26T07:21:55;3.63;;;1.55;;
41903;SDS011;27586;51.124;4.182;2023-06-26T07:24:21;4.10;;;1.38;;
41903;SDS011;27586;51.124;4.182;2023-06-26T07:26:46;3.63;;;1.40;;
41903;SDS011;27586;51.124;4.182;2023-06-26T07:29:12;4.45;;;1.67;;
41903;SDS011;27586;51.124;4.182;2023-06-26T07:31:38;5.40;;;1.67;;
41903;SDS011;27586;51.124;4.182;2023-06-26T07:34:03;4.43;;;1.50;;
41903;SDS011;27586;51.124;4.182;2023-06-26T07:36:29;3.83;;;1.40;;
41903;SDS011;27586;51.124;4.182;2023-06-26T07:38:55;3.75;;;1.60;;
41903;SDS011;27586;51.124;4.182;2023-06-26T07:41:20;3.60;;;1.33;;
41903;SDS011;27586;51.124;4.182;2023-06-26T07:43:46;5.47;;;1.88;;
41903;SDS011;27586;51.124;4.182;2023-06-26T07:46:11;7.55;;;1.90;;
41903;SDS011;27586;51.124;4.182;2023-06-26T07:48:37;3.20;;;1.60;;
41903;SDS011;27586;51.124;4.182;2023-06-26T07:51:03;3.63;;;1.50;;
41903;SDS011;27586;51.124;4.182;2023-06-26T07:53:28;5.35;;;1.70;;
41903;SDS011;27586;51.124;4.182;2023-06-26T07:55:54;6.18;;;2.10;;
41903;SDS011;27586;51.124;4.182;2023-06-26T07:58:19;5.68;;;1.38;;
41903;SDS011;27586;51.124;4.182;2023-06-26T08:00:45;4.53;;;1.65;;
41903;SDS011;27586;51.124;4.182;2023-06-26T08:03:11;3.03;;;1.50;;
41903;SDS011;27586;51.124;4.182;2023-06-26T08:05:36;2.80;;;1.17;;
41903;SDS011;27586;51.124;4.182;2023-06-26T08:08:02;4.22;;;1.48;;
41903;SDS011;27586;51.124;4.182;2023-06-26T08:10:28;6.60;;;1.60;;
41903;SDS011;27586;51.124;4.182;2023-06-26T08:12:55;3.25;;;1.50;;
41903;SDS011;27586;51.124;4.182;2023-06-26T08:15:21;5.05;;;1.42;;
41903;SDS011;27586;51.124;4.182;2023-06-26T08:17:46;3.80;;;1.20;;
41903;SDS011;27586;51.124;4.182;2023-06-26T08:20:12;5.80;;;1.63;;
41903;SDS011;27586;51.124;4.182;2023-06-26T08:22:38;3.83;;;1.33;;
41903;SDS011;27586;51.124;4.182;2023-06-26T08:25:04;4.07;;;1.17;;
41903;SDS011;27586;51.124;4.182;2023-06-26T08:27:31;4.65;;;1.42;;
41903;SDS011;27586;51.124;4.182;2023-06-26T08:29:57;6.43;;;1.63;;
41903;SDS011;27586;51.124;4.182;2023-06-26T08:32:23;4.95;;;1.58;;
41903;SDS011;27586;51.124;4.182;2023-06-26T08:34:50;3.35;;;1.40;;
41903;SDS011;27586;51.124;4.182;2023-06-26T08:37:15;4.65;;;1.70;;
41903;SDS011;27586;51.124;4.182;2023-06-26T08:39:41;5.32;;;1.83;;
41903;SDS011;27586;51.124;4.182;2023-06-26T08:42:07;7.47;;;1.65;;
41903;SDS011;27586;51.124;4.182;2023-06-26T08:44:32;6.55;;;1.65;;
41903;SDS011;27586;51.124;4.182;2023-06-26T08:47:01;4.15;;;1.58;;
41903;SDS011;27586;51.124;4.182;2023-06-26T08:52:02;3.55;;;1.50;;
41903;SDS011;27586;51.124;4.182;2023-06-26T08:54:34;4.72;;;1.52;;
41903;SDS011;27586;51.124;4.182;2023-06-26T08:57:03;4.70;;;1.75;;
41903;SDS011;27586;51.124;4.182;2023-06-26T08:59:30;5.18;;;1.90;;
41903;SDS011;27586;51.124;4.182;2023-06-26T09:01:57;7.13;;;2.42;;
41903;SDS011;27586;51.124;4.182;2023-06-26T09:04:22;4.38;;;2.05;;
41903;SDS011;27586;51.124;4.182;2023-06-26T09:06:48;9.07;;;2.10;;
41903;SDS011;27586;51.124;4.182;2023-06-26T09:09:13;9.07;;;2.10;;
41903;SDS011;27586;51.124;4.182;2023-06-26T09:11:39;5.60;;;1.85;;
41903;SDS011;27586;51.124;4.182;2023-06-26T09:14:05;23.10;;;3.72;;
41903;SDS011;27586;51.124;4.182;2023-06-26T09:16:39;4.22;;;1.77;;
41903;SDS011;27586;51.124;4.182;2023-06-26T09:19:10;3.25;;;1.42;;
41903;SDS011;27586;51.124;4.182;2023-06-26T09:21:38;4.68;;;1.50;;
41903;SDS011;27586;51.124;4.182;2023-06-26T09:24:07;5.40;;;1.48;;
41903;SDS011;27586;51.124;4.182;2023-06-26T09:26:35;5.53;;;1.40;;
41903;SDS011;27586;51.124;4.182;2023-06-26T09:29:02;3.67;;;1.45;;
41903;SDS011;27586;51.124;4.182;2023-06-26T09:31:28;3.08;;;1.60;;
41903;SDS011;27586;51.124;4.182;2023-06-26T09:33:58;3.33;;;1.48;;
41903;SDS011;27586;51.124;4.182;2023-06-26T09:36:28;3.20;;;1.58;;
41903;SDS011;27586;51.124;4.182;2023-06-26T09:38:58;5.80;;;1.83;;
41903;SDS011;27586;51.124;4.182;2023-06-26T09:41:27;4.63;;;1.50;;
41903;SDS011;27586;51.124;4.182;2023-06-26T09:43:53;4.55;;;1.67;;
41903;SDS011;27586;51.124;4.182;2023-06-26T09:46:26;4.82;;;1.65;;
41903;SDS011;27586;51.124;4.182;2023-06-26T09:49:00;5.28;;;1.55;;
41903;SDS011;27586;51.124;4.182;2023-06-26T09:51:32;3.60;;;1.27;;
41903;SDS011;27586;51.124;4.182;2023-06-26T09:54:02;2.63;;;1.20;;
41903;SDS011;27586;51.124;4.182;2023-06-26T09:56:28;4.78;;;1.80;;
41903;SDS011;27586;51.124;4.182;2023-06-26T09:58:55;5.03;;;1.52;;
41903;SDS011;27586;51.124;4.182;2023-06-26T10:01:23;2.75;;;1.30;;
41903;SDS011;27586;51.124;4.182;2023-06-26T10:03:49;2.00;;;1.40;;
41903;SDS011;27586;51.124;4.182;2023-06-26T10:06:14;2.47;;;1.30;;
41903;SDS011;27586;51.124;4.182;2023-06-26T10:08:44;3.08;;;1.50;;
41903;SDS011;27586;51.124;4.182;2023-06-26T10:11:11;3.33;;;1.45;;
41903;SDS011;27586;51.124;4.182;2023-06-26T10:13:43;3.38;;;1.40;;
41903;SDS011;27586;51.124;4.182;2023-06-26T10:16:13;3.47;;;1.30;;
41903;SDS011;27586;51.124;4.182;2023-06-26T10:18:48;4.63;;;1.40;;
41903;SDS011;27586;51.124;4.182;2023-06-26T10:21:17;4.85;;;1.35;;
41903;SDS011;27586;51.124;4.182;2023-06-26T10:23:45;3.60;;;1.45;;
41903;SDS011;27586;51.124;4.182;2023-06-26T10:26:11;4.97;;;1.50;;
41903;SDS011;27586;51.124;4.182;2023-06-26T10:28:38;6.30;;;1.45;;
41903;SDS011;27586;51.124;4.182;2023-06-26T10:31:04;3.50;;;1.40;;
41903;SDS011;27586;51.124;4.182;2023-06-26T10:33:34;4.43;;;1.67;;
41903;SDS011;27586;51.124;4.182;2023-06-26T10:36:16;5.53;;;1.40;;
41903;SDS011;27586;51.124;4.182;2023-06-26T10:38:51;4.75;;;1.42;;
41903;SDS011;27586;51.124;4.182;2023-06-26T10:41:23;6.10;;;1.55;;
41903;SDS011;27586;51.124;4.182;2023-06-26T10:46:50;4.60;;;1.60;;
41903;SDS011;27586;51.124;4.182;2023-06-26T10:49:20;3.60;;;1.48;;
41903;SDS011;27586;51.124;4.182;2023-06-26T10:51:50;4.13;;;1.30;;
41903;SDS011;27586;51.124;4.182;2023-06-26T10:54:17;3.92;;;1.20;;
41903;SDS011;27586;51.124;4.182;2023-06-26T10:56:44;3.42;;;1.27;;
41903;SDS011;27586;51.124;4.182;2023-06-26T10:59:12;2.97;;;1.17;;
41903;SDS011;27586;51.124;4.182;2023-06-26T11:01:43;2.42;;;1.33;;
41903;SDS011;27586;51.124;4.182;2023-06-26T11:04:11;3.45;;;1.35;;
41903;SDS011;27586;51.124;4.182;2023-06-26T11:06:39;2.25;;;1.10;;
41903;SDS011;27586;51.124;4.182;2023-06-26T11:14:24;4.60;;;1.50;;
41903;SDS011;27586;51.124;4.182;2023-06-26T11:16:52;3.45;;;1.48;;
41903;SDS011;27586;51.124;4.182;2023-06-26T11:19:20;4.85;;;1.65;;
41903;SDS011;27586;51.124;4.182;2023-06-26T11:21:46;5.93;;;1.73;;
41903;SDS011;27586;51.124;4.182;2023-06-26T11:24:12;4.85;;;1.27;;
41903;SDS011;27586;51.124;4.182;2023-06-26T11:26:39;2.72;;;1.25;;
41903;SDS011;27586;51.124;4.182;2023-06-26T11:29:09;3.60;;;1.50;;
41903;SDS011;27586;51.124;4.182;2023-06-26T11:31:36;3.45;;;1.20;;
41903;SDS011;27586;51.124;4.182;2023-06-26T11:34:04;3.03;;;1.52;;
41903;SDS011;27586;51.124;4.182;2023-06-26T11:36:33;2.20;;;1.27;;
41903;SDS011;27586;51.124;4.182;2023-06-26T11:39:02;2.95;;;1.30;;
41903;SDS011;27586;51.124;4.182;2023-06-26T11:41:31;3.83;;;1.50;;
41903;SDS011;27586;51.124;4.182;2023-06-26T11:44:04;5.32;;;1.38;;
41903;SDS011;27586;51.124;4.182;2023-06-26T11:46:31;4.90;;;1.70;;
41903;SDS011;27586;51.124;4.182;2023-06-26T11:48:57;3.15;;;1.35;;
41903;SDS011;27586;51.124;4.182;2023-06-26T11:51:23;2.95;;;1.30;;
41903;SDS011;27586;51.124;4.182;2023-06-26T11:53:51;1.88;;;1.30;;
41903;SDS011;27586;51.124;4.182;2023-06-26T11:56:18;3.38;;;1.60;;
41903;SDS011;27586;51.124;4.182;2023-06-26T12:01:43;1.52;;;1.08;;
41903;SDS011;27586;51.124;4.182;2023-06-26T12:04:13;5.57;;;1.33;;
41903;SDS011;27586;51.124;4.182;2023-06-26T12:06:51;2.38;;;1.10;;
41903;SDS011;27586;51.124;4.182;2023-06-26T12:09:22;5.07;;;1.48;;
41903;SDS011;27586;51.124;4.182;2023-06-26T12:11:50;6.43;;;1.55;;
41903;SDS011;27586;51.124;4.182;2023-06-26T12:14:19;3.78;;;1.30;;
41903;SDS011;27586;51.124;4.182;2023-06-26T12:16:45;1.98;;;1.10;;
41903;SDS011;27586;51.124;4.182;2023-06-26T12:19:12;2.80;;;1.48;;
41903;SDS011;27586;51.124;4.182;2023-06-26T12:24:07;3.40;;;1.30;;
41903;SDS011;27586;51.124;4.182;2023-06-26T12:26:34;2.38;;;1.25;;
41903;SDS011;27586;51.124;4.182;2023-06-26T12:29:06;2.35;;;1.10;;
41903;SDS011;27586;51.124;4.182;2023-06-26T12:31:33;1.40;;;1.00;;
41903;SDS011;27586;51.124;4.182;2023-06-26T12:34:01;2.65;;;0.98;;
41903;SDS011;27586;51.124;4.182;2023-06-26T12:36:27;3.35;;;1.30;;
41903;SDS011;27586;51.124;4.182;2023-06-26T12:38:53;4.30;;;1.40;;
41903;SDS011;27586;51.124;4.182;2023-06-26T12:41:19;4.32;;;1.17;;
41903;SDS011;27586;51.124;4.182;2023-06-26T12:43:45;5.47;;;1.65;;
41903;SDS011;27586;51.124;4.182;2023-06-26T12:46:11;5.68;;;1.40;;
41903;SDS011;27586;51.124;4.182;2023-06-26T12:48:40;7.00;;;1.67;;
41903;SDS011;27586;51.124;4.182;2023-06-26T12:51:11;4.10;;;1.40;;
41903;SDS011;27586;51.124;4.182;2023-06-26T12:53:41;4.25;;;1.35;;
41903;SDS011;27586;51.124;4.182;2023-06-26T12:56:07;2.70;;;1.30;;
41903;SDS011;27586;51.124;4.182;2023-06-26T12:58:34;3.60;;;1.38;;
41903;SDS011;27586;51.124;4.182;2023-06-26T13:01:05;2.33;;;1.00;;
41903;SDS011;27586;51.124;4.182;2023-06-26T13:03:42;3.22;;;1.30;;
41903;SDS011;27586;51.124;4.182;2023-06-26T13:06:08;2.78;;;1.58;;
41903;SDS011;27586;51.124;4.182;2023-06-26T13:08:34;2.90;;;1.40;;
41903;SDS011;27586;51.124;4.182;2023-06-26T13:10:59;4.57;;;1.52;;
41903;SDS011;27586;51.124;4.182;2023-06-26T13:13:25;1.77;;;1.00;;
41903;SDS011;27586;51.124;4.182;2023-06-26T13:15:51;2.88;;;1.27;;
41903;SDS011;27586;51.124;4.182;2023-06-26T13:18:17;3.90;;;1.27;;
41903;SDS011;27586;51.124;4.182;2023-06-26T13:20:42;1.73;;;1.27;;
41903;SDS011;27586;51.124;4.182;2023-06-26T13:23:08;2.75;;;1.30;;
41903;SDS011;27586;51.124;4.182;2023-06-26T13:25:34;2.55;;;1.40;;
41903;SDS011;27586;51.124;4.182;2023-06-26T13:27:59;2.90;;;1.40;;
41903;SDS011;27586;51.124;4.182;2023-06-26T13:30:25;3.17;;;1.30;;
41903;SDS011;27586;51.124;4.182;2023-06-26T13:32:51;3.22;;;1.00;;
41903;SDS011;27586;51.124;4.182;2023-06-26T13:35:16;3.00;;;1.27;;
41903;SDS011;27586;51.124;4.182;2023-06-26T13:37:43;7.07;;;1.30;;
41903;SDS011;27586;51.124;4.182;2023-06-26T13:40:08;3.60;;;1.20;;
41903;SDS011;27586;51.124;4.182;2023-06-26T13:42:35;5.10;;;1.20;;
41903;SDS011;27586;51.124;4.182;2023-06-26T13:45:06;3.17;;;1.55;;
41903;SDS011;27586;51.124;4.182;2023-06-26T13:47:32;2.80;;;1.25;;
41903;SDS011;27586;51.124;4.182;2023-06-26T13:49:59;3.72;;;1.35;;
41903;SDS011;27586;51.124;4.182;2023-06-26T13:52:25;1.88;;;1.15;;
41903;SDS011;27586;51.124;4.182;2023-06-26T13:54:51;2.72;;;1.10;;
41903;SDS011;27586;51.124;4.182;2023-06-26T13:57:16;3.92;;;1.38;;
41903;SDS011;27586;51.124;4.182;2023-06-26T13:59:44;4.07;;;1.65;;
41903;SDS011;27586;51.124;4.182;2023-06-26T14:02:10;4.03;;;1.45;;
41903;SDS011;27586;51.124;4.182;2023-06-26T14:04:35;2.58;;;1.23;;
41903;SDS011;27586;51.124;4.182;2023-06-26T14:07:02;2.08;;;1.30;;
41903;SDS011;27586;51.124;4.182;2023-06-26T14:09:28;2.50;;;1.40;;
41903;SDS011;27586;51.124;4.182;2023-06-26T14:11:54;3.83;;;1.17;;
41903;SDS011;27586;51.124;4.182;2023-06-26T14:14:19;2.65;;;1.40;;
41903;SDS011;27586;51.124;4.182;2023-06-26T14:16:45;3.92;;;1.60;;
41903;SDS011;27586;51.124;4.182;2023-06-26T14:19:10;2.95;;;1.30;;
41903;SDS011;27586;51.124;4.182;2023-06-26T14:21:39;2.65;;;1.30;;
41903;SDS011;27586;51.124;4.182;2023-06-26T14:24:05;3.65;;;1.38;;
41903;SDS011;27586;51.124;4.182;2023-06-26T14:26:31;2.47;;;1.40;;
41903;SDS011;27586;51.124;4.182;2023-06-26T14:28:58;6.05;;;1.80;;
41903;SDS011;27586;51.124;4.182;2023-06-26T14:31:24;7.07;;;2.20;;
41903;SDS011;27586;51.124;4.182;2023-06-26T14:33:50;4.15;;;1.60;;
41903;SDS011;27586;51.124;4.182;2023-06-26T14:36:16;1.90;;;1.35;;
41903;SDS011;27586;51.124;4.182;2023-06-26T14:38:41;2.55;;;1.35;;
41903;SDS011;27586;51.124;4.182;2023-06-26T14:41:07;2.13;;;1.50;;
41903;SDS011;27586;51.124;4.182;2023-06-26T14:43:33;3.17;;;1.35;;
41903;SDS011;27586;51.124;4.182;2023-06-26T14:45:59;3.15;;;1.35;;
41903;SDS011;27586;51.124;4.182;2023-06-26T14:48:24;4.00;;;1.45;;
41903;SDS011;27586;51.124;4.182;2023-06-26T14:50:50;3.97;;;1.30;;
41903;SDS011;27586;51.124;4.182;2023-06-26T14:53:16;5.47;;;1.60;;
41903;SDS011;27586;51.124;4.182;2023-06-26T14:55:42;4.28;;;1.42;;
41903;SDS011;27586;51.124;4.182;2023-06-26T14:58:08;2.67;;;1.30;;
41903;SDS011;27586;51.124;4.182;2023-06-26T15:00:33;3.70;;;1.30;;
41903;SDS011;27586;51.124;4.182;2023-06-26T15:02:59;4.63;;;1.40;;
41903;SDS011;27586;51.124;4.182;2023-06-26T15:05:25;4.50;;;1.50;;